Airfield :
LOGIN :

Register | Disclaimer

   EN    FR    IT 

 










Legend :    VFR   Marginal VFR   IFR   Intensive IFR   Very Intensive IFR
Visi :
Ceiling :
>= 8 km
>= 3000ft
5 to 8 km
1000 to 3000 ft
1500m to 5 km
500 to 1000 ft
800 to 1500m
200 to 500 ft
< 800m
< 200 ft
Symbols :   Thunderstorms  Fog  Heavy snow  Heavy precipitations  Wind > 20 kt
SIGMETs :     Misc.  Thunderstorms  Icing  Turbulence  Mountain Waves  Volcanic Ashes






- Airport Elevation : 24 ft
- IATA code : FAO


LPFR - Faro

CURRENT METAR :
  • 090200Z 27005KT 9999 FEW040 14/14 Q1028

EXPIRED METARs :
  • 090130Z 25003KT 9999 FEW040 14/14 Q1028
  • 090100Z 26005KT 9999 FEW040 14/14 Q1028
  • 090030Z 24005KT 9999 SCT040 14/14 Q1028
  • 090000Z 28006KT 9999 FEW025 BKN040 15/14 Q1029
  • 082330Z 27008KT 9999 FEW025 BKN040 15/15 Q1029

TAF TAF LPFR
Valid from the 09 at 00:00 until the 10 at 00:00 UTC


082300Z 0900/0924 29007KT 9999 FEW020 BKN035
PROB40
TEMPO 0900/0906 5000 -RADZ SCT006 BKN012
BECMG 0906/0909 VRB03KT SCT025
BECMG 0912/0914 17008KT CAVOK
BECMG 0916/0918 29007KT
BECMG 0922/0924 01007KT



MET'MAP, your aeronautical weather chart ! - Copyright ORBIFLY December 2007 - Disclaimer

ORBIFLY MET'MAP TEAM :

Programming & Development : Alexandra Zaïnal
Concept & original design : Baudouin d'Aumeries
Assistance for programming : Marc-Olivier Méhu
Technical & hardware support : Manuel Goepfert

Contact : metmap@orbifly.com




SOURCES & CREDITS :

   NOAA